Time;durP1;ratioP1;P1;durP2;ratioP2;P2;SDS_P1;SDS_P2;PMS_P1;PMS_P2;Temp;Humidity;BMP_temperature;BMP_pressure;BME280_temperature;BME280_humidity;BME280_pressure;Samples;Min_cycle;Max_cycle;Signal;HPM_P1;HPM_P2
2023/02/06 00:01:00;;;;;;;3.00;1.60;;;20.70;52.90;;;;;;5020048;28;20071;-66
2023/02/06 00:03:27;;;;;;;2.80;1.60;;;20.70;52.90;;;;;;5020888;28;20140;-66
2023/02/06 00:05:58;;;;;;;2.60;1.70;;;20.70;52.90;;;;;;5020717;28;20120;-66
2023/02/06 00:08:24;;;;;;;2.85;1.67;;;20.70;52.90;;;;;;5018083;28;20462;-66
2023/02/06 00:10:50;;;;;;;2.70;1.70;;;20.70;52.90;;;;;;5022957;28;20018;-66
2023/02/06 00:13:16;;;;;;;2.42;1.40;;;20.60;52.90;;;;;;5023043;28;20056;-66
2023/02/06 00:15:42;;;;;;;2.05;1.35;;;20.60;52.90;;;;;;5017171;28;20026;-66
2023/02/06 00:18:07;;;;;;;2.35;1.50;;;20.60;53.00;;;;;;5019472;28;20022;-66
2023/02/06 00:20:33;;;;;;;2.60;1.58;;;20.60;53.00;;;;;;5020245;28;20080;-66
2023/02/06 00:22:59;;;;;;;2.00;1.48;;;20.60;53.00;;;;;;5019446;28;20083;-66
2023/02/06 00:25:24;;;;;;;2.40;1.40;;;20.60;53.10;;;;;;5019761;28;20465;-66
2023/02/06 00:27:50;;;;;;;2.42;1.40;;;20.50;53.10;;;;;;5018752;28;20033;-66
2023/02/06 00:30:15;;;;;;;2.08;1.42;;;20.50;53.10;;;;;;5019612;28;20033;-66
2023/02/06 00:32:41;;;;;;;2.70;1.50;;;20.50;53.10;;;;;;5019895;28;20444;-66
2023/02/06 00:35:07;;;;;;;2.95;1.63;;;20.50;53.10;;;;;;5021472;28;20083;-66
2023/02/06 00:37:33;;;;;;;2.13;1.50;;;20.50;53.10;;;;;;5018765;28;20425;-66
2023/02/06 00:39:58;;;;;;;2.10;1.23;;;20.50;53.10;;;;;;5018086;28;20060;-66
2023/02/06 00:42:24;;;;;;;1.98;1.45;;;20.40;53.10;;;;;;5017043;28;20061;-66
2023/02/06 00:44:50;;;;;;;2.10;1.35;;;20.40;53.10;;;;;;5021143;28;20056;-66
2023/02/06 00:47:15;;;;;;;1.88;1.30;;;20.40;53.10;;;;;;5016883;28;20050;-66
2023/02/06 00:49:41;;;;;;;2.20;1.50;;;20.40;53.20;;;;;;5023336;28;20029;-66
2023/02/06 00:52:06;;;;;;;2.20;1.50;;;20.40;53.20;;;;;;5017521;28;20088;-66
2023/02/06 00:54:32;;;;;;;2.60;1.55;;;20.40;53.20;;;;;;5022774;28;20044;-66
2023/02/06 00:56:58;;;;;;;2.10;1.48;;;20.40;53.20;;;;;;5019369;28;20112;-66
2023/02/06 00:59:23;;;;;;;1.70;1.33;;;20.30;53.20;;;;;;5023797;28;20541;-66
2023/02/06 01:01:49;;;;;;;3.13;1.38;;;20.30;53.10;;;;;;5025160;28;20047;-66
2023/02/06 01:04:15;;;;;;;2.78;1.50;;;20.30;53.20;;;;;;5020885;28;20041;-66
2023/02/06 01:06:40;;;;;;;2.30;1.60;;;20.30;53.20;;;;;;5018583;28;20029;-66
2023/02/06 01:09:06;;;;;;;1.77;1.30;;;20.30;53.30;;;;;;5020759;28;20555;-66
2023/02/06 01:11:31;;;;;;;1.55;1.20;;;20.30;53.20;;;;;;5020217;28;20030;-66
2023/02/06 01:13:57;;;;;;;2.22;1.30;;;20.30;53.20;;;;;;5018676;28;20032;-66
2023/02/06 01:16:23;;;;;;;2.42;1.48;;;20.30;53.30;;;;;;5021090;28;20033;-66
2023/02/06 01:18:49;;;;;;;2.15;1.40;;;20.30;53.30;;;;;;5035142;28;20030;-66
2023/02/06 01:21:19;;;;;;;3.35;1.45;;;20.30;53.30;;;;;;5022670;28;20029;-66
2023/02/06 01:23:46;;;;;;;;;;;20.20;53.30;;;;;;5022700;28;20018;-66
2023/02/06 01:26:14;;;;;;;2.08;1.30;;;20.20;53.30;;;;;;5018859;28;20380;-66
2023/02/06 01:28:42;;;;;;;2.42;1.30;;;20.20;53.30;;;;;;5018139;28;20029;-66
2023/02/06 01:31:17;;;;;;;2.10;1.40;;;20.20;53.30;;;;;;5018850;28;20034;-66
2023/02/06 01:33:44;;;;;;;1.85;1.20;;;20.20;53.30;;;;;;5017565;28;20119;-66
2023/02/06 01:36:11;;;;;;;2.13;1.33;;;20.20;53.30;;;;;;5015270;28;20101;-66
2023/02/06 01:38:38;;;;;;;2.20;1.50;;;20.10;53.30;;;;;;5020792;28;20094;-66
2023/02/06 01:41:04;;;;;;;2.13;1.30;;;20.10;53.30;;;;;;5034783;28;20496;-66
2023/02/06 01:43:34;;;;;;;1.88;1.27;;;20.10;53.40;;;;;;5018564;28;20030;-66
2023/02/06 01:46:00;;;;;;;2.47;1.20;;;20.10;53.40;;;;;;5020220;28;20041;-66
2023/02/06 01:48:34;;;;;;;2.15;1.35;;;20.10;53.40;;;;;;5018607;28;20119;-66
2023/02/06 01:51:02;;;;;;;2.15;1.38;;;20.10;53.40;;;;;;5020915;28;20513;-66
2023/02/06 01:53:29;;;;;;;1.85;1.33;;;20.10;53.40;;;;;;5021547;28;20034;-66
2023/02/06 01:55:57;;;;;;;2.22;1.40;;;20.10;53.40;;;;;;5019016;28;20477;-66
2023/02/06 01:58:28;;;;;;;1.60;1.20;;;20.10;53.40;;;;;;5017633;28;20113;-66
2023/02/06 02:00:55;;;;;;;1.98;1.40;;;20.10;53.40;;;;;;5020279;28;20026;-66
2023/02/06 02:03:21;;;;;;;2.20;1.30;;;20.10;53.40;;;;;;5022710;28;20034;-66
2023/02/06 02:05:47;;;;;;;2.08;1.27;;;20.10;53.40;;;;;;5022532;28;20392;-66
2023/02/06 02:08:21;;;;;;;1.52;1.10;;;20.00;53.40;;;;;;5022938;28;20033;-66
2023/02/06 02:10:47;;;;;;;2.00;1.40;;;20.00;53.40;;;;;;5023344;28;20504;-66
2023/02/06 02:13:12;;;;;;;2.03;1.30;;;20.00;53.40;;;;;;5025703;28;20116;-66
2023/02/06 02:15:58;;;;;;;2.20;1.30;;;20.00;53.40;;;;;;5022733;28;20040;-66
2023/02/06 02:19:11;;;;;;;2.00;1.35;;;20.00;53.40;;;;;;5024349;28;20022;-66
2023/02/06 02:21:52;;;;;;;1.88;1.23;;;20.00;53.40;;;;;;4981427;28;20449;-66
2023/02/06 02:24:39;;;;;;;1.92;1.30;;;20.00;53.50;;;;;;4983494;28;20081;-66
2023/02/06 02:27:42;;;;;;;1.90;1.30;;;19.90;53.40;;;;;;5011556;28;20045;-66
2023/02/06 02:30:51;;;;;;;1.85;1.30;;;19.90;53.40;;;;;;5023999;28;20080;-66
2023/02/06 02:33:35;;;;;;;1.90;1.20;;;19.90;53.40;;;;;;5023716;28;20074;-66
2023/02/06 02:36:01;;;;;;;1.92;1.23;;;19.90;53.40;;;;;;5024796;28;20036;-66
2023/02/06 02:38:42;;;;;;;1.95;1.40;;;19.90;53.40;;;;;;5023089;28;20051;-66
2023/02/06 02:41:32;;;;;;;1.67;1.13;;;19.90;53.50;;;;;;5023395;28;20108;-66
2023/02/06 02:44:09;;;;;;;1.58;1.27;;;19.90;53.50;;;;;;5019902;28;20088;-66
2023/02/06 02:46:36;;;;;;;2.10;1.45;;;19.90;53.50;;;;;;5021239;28;20052;-66
2023/02/06 02:49:12;;;;;;;1.63;1.15;;;19.90;53.50;;;;;;5019280;28;20542;-66
2023/02/06 02:51:39;;;;;;;1.42;1.05;;;19.80;53.40;;;;;;5021055;28;20508;-66
2023/02/06 02:54:05;;;;;;;1.80;1.20;;;19.90;53.50;;;;;;5016754;28;20033;-66
2023/02/06 02:56:32;;;;;;;1.80;1.10;;;19.90;53.50;;;;;;5025185;28;20472;-66
2023/02/06 02:59:03;;;;;;;2.50;1.25;;;19.80;53.40;;;;;;5021137;28;20018;-66
2023/02/06 03:01:34;;;;;;;1.67;1.17;;;19.80;53.50;;;;;;5017830;28;20136;-66
2023/02/06 03:04:08;;;;;;;1.67;1.10;;;19.80;53.40;;;;;;5020572;28;20018;-66
2023/02/06 03:06:37;;;;;;;1.73;1.20;;;19.80;53.40;;;;;;5023754;28;20033;-66
2023/02/06 03:09:44;;;;;;;1.70;1.20;;;19.80;53.50;;;;;;5019353;28;20021;-66
2023/02/06 03:12:48;;;;;;;1.80;1.20;;;19.80;53.50;;;;;;5021945;28;20557;-66
2023/02/06 03:15:17;;;;;;;1.85;1.20;;;19.80;53.50;;;;;;5009904;28;20491;-66
2023/02/06 03:17:52;;;;;;;1.95;1.40;;;19.80;53.40;;;;;;5019280;28;20021;-66
2023/02/06 03:20:19;;;;;;;1.67;1.17;;;19.80;53.50;;;;;;5021426;28;20445;-66
2023/02/06 03:22:48;;;;;;;2.35;1.30;;;19.80;54.00;;;;;;5022339;28;20500;-67
2023/02/06 03:25:19;;;;;;;1.90;1.23;;;19.80;53.50;;;;;;5020541;28;20116;-67
2023/02/06 03:27:45;;;;;;;1.42;1.00;;;19.80;53.50;;;;;;5022147;28;20132;-67
2023/02/06 03:30:12;;;;;;;1.58;1.17;;;19.80;53.50;;;;;;5019792;28;20145;-67
2023/02/06 03:32:45;;;;;;;1.80;1.10;;;19.80;53.50;;;;;;5018260;28;20489;-67
2023/02/06 03:35:16;;;;;;;2.00;1.30;;;19.70;53.40;;;;;;5021179;28;20026;-67
2023/02/06 03:37:43;;;;;;;1.35;1.05;;;19.70;53.50;;;;;;5020857;28;20909;-67
2023/02/06 03:40:10;;;;;;;3.53;1.20;;;19.70;53.50;;;;;;5022226;28;20026;-67
2023/02/06 03:42:40;;;;;;;1.50;1.10;;;19.70;53.50;;;;;;5016034;28;20030;-67
2023/02/06 03:45:14;;;;;;;1.92;1.20;;;19.70;53.50;;;;;;5018751;28;20060;-67
2023/02/06 03:47:42;;;;;;;1.15;0.93;;;19.70;53.50;;;;;;5020059;28;20060;-67
2023/02/06 03:50:10;;;;;;;1.80;1.10;;;19.70;53.50;;;;;;5020181;28;20017;-67
2023/02/06 03:52:41;;;;;;;1.38;1.00;;;19.70;53.50;;;;;;5032937;28;20393;-67
2023/02/06 03:55:12;;;;;;;1.95;1.10;;;19.70;53.50;;;;;;5020266;28;20491;-67
2023/02/06 03:57:40;;;;;;;1.63;1.10;;;19.70;53.50;;;;;;5019672;28;20036;-67
2023/02/06 04:00:07;;;;;;;1.50;1.10;;;19.70;53.50;;;;;;5020942;28;20037;-67
2023/02/06 04:02:33;;;;;;;1.60;1.20;;;19.70;53.50;;;;;;5022838;28;20029;-68
2023/02/06 04:04:58;;;;;;;1.63;1.10;;;19.70;53.50;;;;;;5021138;28;20151;-68
2023/02/06 04:07:27;;;;;;;1.60;1.10;;;19.70;53.50;;;;;;5020126;28;20754;-67
2023/02/06 04:09:52;;;;;;;1.30;1.00;;;19.70;54.10;;;;;;5019843;28;20030;-68
2023/02/06 04:12:19;;;;;;;1.77;1.20;;;19.70;53.60;;;;;;5018451;28;20052;-68
2023/02/06 04:14:45;;;;;;;1.60;1.10;;;19.60;53.50;;;;;;5018518;28;20434;-68
2023/02/06 04:17:12;;;;;;;2.60;1.35;;;19.60;53.60;;;;;;5020483;28;20037;-68
2023/02/06 04:19:38;;;;;;;1.60;1.10;;;19.60;53.60;;;;;;5020137;28;20126;-68
2023/02/06 04:22:05;;;;;;;1.65;1.20;;;19.60;53.60;;;;;;5020307;28;20040;-68
2023/02/06 04:24:31;;;;;;;2.22;1.20;;;19.60;53.70;;;;;;5019431;28;20614;-68
2023/02/06 04:26:57;;;;;;;1.58;1.10;;;19.60;53.70;;;;;;5023251;28;20061;-68
2023/02/06 04:29:22;;;;;;;1.90;1.30;;;19.60;53.70;;;;;;5020929;28;20056;-68
2023/02/06 04:31:48;;;;;;;1.83;1.20;;;19.60;53.70;;;;;;5019503;28;20457;-68
2023/02/06 04:34:14;;;;;;;2.22;1.20;;;19.60;53.70;;;;;;5019213;28;20460;-68
2023/02/06 04:36:40;;;;;;;1.90;1.23;;;19.50;53.70;;;;;;5017100;28;20026;-68
2023/02/06 04:39:06;;;;;;;1.40;1.02;;;19.60;53.70;;;;;;5017586;28;20056;-68
2023/02/06 04:41:32;;;;;;;2.33;1.10;;;19.60;53.70;;;;;;5019080;28;20461;-68
2023/02/06 04:43:58;;;;;;;1.73;1.20;;;19.60;53.80;;;;;;5020336;28;20022;-68
2023/02/06 04:46:24;;;;;;;1.50;1.10;;;19.50;53.70;;;;;;5022018;28;20481;-68
2023/02/06 04:48:50;;;;;;;1.50;1.02;;;19.50;53.70;;;;;;5020507;28;20092;-68
2023/02/06 04:51:15;;;;;;;1.60;1.15;;;19.50;53.70;;;;;;5017522;28;20034;-68
2023/02/06 04:53:41;;;;;;;2.40;1.30;;;19.50;53.80;;;;;;5019232;28;20339;-68
2023/02/06 04:56:11;;;;;;;1.27;0.90;;;19.50;53.80;;;;;;5019845;28;20114;-68
2023/02/06 04:58:38;;;;;;;1.70;1.10;;;19.50;54.30;;;;;;5018090;28;20409;-68
2023/02/06 05:01:04;;;;;;;1.45;1.10;;;19.50;53.80;;;;;;5019184;28;20060;-68
2023/02/06 05:03:29;;;;;;;2.05;1.13;;;19.50;53.80;;;;;;5017960;28;20054;-68
2023/02/06 05:05:58;;;;;;;1.40;1.10;;;19.50;53.80;;;;;;5020505;28;20044;-68
2023/02/06 05:08:24;;;;;;;2.58;1.00;;;19.50;53.80;;;;;;5019746;28;20022;-67
2023/02/06 05:10:51;;;;;;;1.42;1.00;;;19.50;53.80;;;;;;5016606;28;20084;-68
2023/02/06 05:13:19;;;;;;;1.88;1.20;;;19.50;53.80;;;;;;5018825;28;20088;-67
2023/02/06 05:15:45;;;;;;;1.33;1.00;;;19.50;53.80;;;;;;5034602;28;20037;-68
2023/02/06 05:18:11;;;;;;;1.50;1.00;;;19.50;53.80;;;;;;5018039;28;20030;-67
2023/02/06 05:20:37;;;;;;;1.10;1.00;;;19.40;53.80;;;;;;5018244;28;20112;-67
2023/02/06 05:23:03;;;;;;;1.27;0.90;;;19.40;53.90;;;;;;5015514;28;20057;-68
2023/02/06 05:25:29;;;;;;;1.30;1.00;;;19.40;53.90;;;;;;5018687;28;20037;-67
2023/02/06 05:27:56;;;;;;;1.30;0.93;;;19.50;53.90;;;;;;5019334;28;20544;-67
2023/02/06 05:30:22;;;;;;;1.48;1.08;;;19.40;53.90;;;;;;5019696;28;20064;-67
2023/02/06 05:32:48;;;;;;;1.50;1.00;;;19.40;53.90;;;;;;5017373;28;20033;-66
2023/02/06 05:35:13;;;;;;;1.20;1.00;;;19.40;53.90;;;;;;5019384;28;20025;-67
2023/02/06 05:37:39;;;;;;;1.63;1.00;;;19.50;54.00;;;;;;5019434;28;20029;-66
2023/02/06 05:40:06;;;;;;;1.38;1.00;;;19.50;54.00;;;;;;5016956;28;20029;-66
2023/02/06 05:42:32;;;;;;;1.65;1.17;;;19.50;54.00;;;;;;5018250;28;20069;-66
2023/02/06 05:44:57;;;;;;;2.55;1.30;;;19.40;54.00;;;;;;5017212;28;20036;-66
2023/02/06 05:47:23;;;;;;;1.23;0.90;;;19.40;54.00;;;;;;5018177;28;20049;-66
2023/02/06 05:49:48;;;;;;;1.75;1.17;;;19.40;54.00;;;;;;5013686;28;20427;-66
2023/02/06 05:52:14;;;;;;;1.30;0.95;;;19.50;54.10;;;;;;5018150;28;20559;-66
2023/02/06 05:54:40;;;;;;;1.52;0.95;;;19.40;54.00;;;;;;5018690;28;20073;-66
2023/02/06 05:57:06;;;;;;;1.23;0.90;;;19.40;54.00;;;;;;5018257;28;20037;-65
2023/02/06 05:59:31;;;;;;;1.10;0.90;;;19.40;54.10;;;;;;5017807;28;20091;-65
2023/02/06 06:01:57;;;;;;;1.27;0.90;;;19.40;54.10;;;;;;5018042;28;20329;-66
2023/02/06 06:04:23;;;;;;;1.85;1.00;;;19.40;54.10;;;;;;5025881;28;20022;-66
2023/02/06 06:06:49;;;;;;;1.65;1.10;;;19.40;54.20;;;;;;5017511;28;20499;-65
2023/02/06 06:09:15;;;;;;;1.67;1.00;;;19.40;54.20;;;;;;5019344;28;20080;-65
2023/02/06 06:11:40;;;;;;;1.48;0.90;;;19.40;54.30;;;;;;5017746;28;20041;-66
2023/02/06 06:14:06;;;;;;;1.48;1.00;;;19.40;54.30;;;;;;5019498;28;20029;-65
2023/02/06 06:16:32;;;;;;;1.75;0.88;;;19.40;54.30;;;;;;5019230;28;20026;-65
2023/02/06 06:18:57;;;;;;;1.30;1.00;;;19.40;54.40;;;;;;5032449;28;20052;-65
2023/02/06 06:21:23;;;;;;;1.38;0.90;;;19.40;54.30;;;;;;5018783;28;20022;-65
2023/02/06 06:23:49;;;;;;;2.05;1.20;;;19.40;54.40;;;;;;5018903;28;20040;-65
2023/02/06 06:26:15;;;;;;;1.55;1.10;;;19.40;54.40;;;;;;5016732;28;20036;-65
2023/02/06 06:28:41;;;;;;;1.20;0.80;;;19.50;54.40;;;;;;5020511;28;20034;-66
2023/02/06 06:31:12;;;;;;;2.72;1.13;;;19.50;55.30;;;;;;5017780;28;20034;-65
2023/02/06 06:33:38;;;;;;;1.98;1.20;;;19.60;55.10;;;;;;5017811;28;20039;-66
2023/02/06 06:36:06;;;;;;;1.67;1.10;;;19.70;54.70;;;;;;5017849;28;20397;-65
2023/02/06 06:38:31;;;;;;;1.88;1.27;;;19.80;54.30;;;;;;5018173;28;20033;-65
2023/02/06 06:40:57;;;;;;;1.70;1.30;;;19.90;54.40;;;;;;5016043;28;20041;-65
2023/02/06 06:43:23;;;;;;;1.75;1.20;;;20.00;54.20;;;;;;5018779;28;20485;-66
2023/02/06 06:45:49;;;;;;;1.65;1.20;;;20.10;54.00;;;;;;5017149;28;20164;-66
2023/02/06 06:48:15;;;;;;;1.70;1.05;;;20.30;53.50;;;;;;5019857;28;20509;-64
2023/02/06 06:50:40;;;;;;;1.40;1.02;;;20.40;53.40;;;;;;5019079;28;20108;-65
2023/02/06 06:53:06;;;;;;;2.00;1.20;;;20.50;53.30;;;;;;5021292;28;20080;-66
2023/02/06 06:55:31;;;;;;;1.88;1.13;;;20.60;52.90;;;;;;5020920;28;20021;-67
2023/02/06 06:57:57;;;;;;;2.42;1.33;;;20.70;52.70;;;;;;5021322;28;20025;-66
2023/02/06 07:00:23;;;;;;;2.03;1.25;;;20.80;52.60;;;;;;5018875;28;20550;-66
2023/02/06 07:02:49;;;;;;;2.10;1.13;;;21.00;52.30;;;;;;5021761;28;20025;-66
2023/02/06 07:05:15;;;;;;;1.73;1.20;;;21.10;51.90;;;;;;5021709;28;20184;-66
2023/02/06 07:07:40;;;;;;;2.50;1.27;;;21.20;51.70;;;;;;5022294;28;20026;-65
2023/02/06 07:10:07;;;;;;;2.05;1.20;;;21.30;51.60;;;;;;5022796;28;20366;-66
2023/02/06 07:12:34;;;;;;;1.67;1.10;;;21.40;51.40;;;;;;5023882;28;20037;-65
2023/02/06 07:14:59;;;;;;;1.73;1.00;;;21.50;51.30;;;;;;5022346;28;20392;-65
2023/02/06 07:17:25;;;;;;;1.85;1.20;;;21.60;51.20;;;;;;5017988;28;20044;-64
2023/02/06 07:19:51;;;;;;;1.67;1.20;;;21.60;51.00;;;;;;5023292;28;20026;-65
2023/02/06 07:22:18;;;;;;;2.25;1.20;;;21.70;50.60;;;;;;5023725;28;20813;-65
2023/02/06 07:24:44;;;;;;;1.80;1.10;;;21.70;50.60;;;;;;5020864;28;20025;-65
2023/02/06 07:27:10;;;;;;;1.95;1.27;;;21.60;50.80;;;;;;5019245;28;20037;-64
2023/02/06 07:29:36;;;;;;;1.63;1.10;;;21.70;51.00;;;;;;5020818;28;20037;-65
2023/02/06 07:32:03;;;;;;;1.60;1.10;;;21.80;50.80;;;;;;5021955;28;20040;-64
2023/02/06 07:34:28;;;;;;;1.55;1.10;;;21.90;50.50;;;;;;5021890;28;20026;-65
2023/02/06 07:36:54;;;;;;;1.50;1.10;;;22.00;50.40;;;;;;5021420;28;20334;-65
2023/02/06 07:39:19;;;;;;;1.75;1.20;;;22.10;50.20;;;;;;5019816;28;20500;-64
2023/02/06 07:41:47;;;;;;;1.48;1.05;;;22.10;50.00;;;;;;5018022;28;20030;-65
2023/02/06 07:44:13;;;;;;;1.30;1.00;;;22.20;50.00;;;;;;5023497;28;20064;-66
2023/02/06 07:46:39;;;;;;;1.23;0.90;;;22.30;49.90;;;;;;5020958;28;20058;-64
2023/02/06 07:49:04;;;;;;;1.20;1.00;;;22.40;49.90;;;;;;5020555;28;20480;-65
2023/02/06 07:51:30;;;;;;;1.80;0.90;;;22.40;49.70;;;;;;5020668;28;20025;-65
2023/02/06 07:53:55;;;;;;;1.75;1.10;;;22.40;49.60;;;;;;5022548;28;20053;-66
2023/02/06 07:56:24;;;;;;;1.48;1.00;;;22.60;49.60;;;;;;5019097;28;20033;-65
2023/02/06 07:58:52;;;;;;;1.92;1.13;;;22.60;49.20;;;;;;5019089;28;20500;-64
2023/02/06 08:01:19;;;;;;;1.20;1.00;;;22.70;49.10;;;;;;5022034;28;20113;-65
2023/02/06 08:03:44;;;;;;;1.65;1.10;;;22.70;49.10;;;;;;5021907;28;20129;-65
2023/02/06 08:06:13;;;;;;;1.70;1.10;;;22.60;49.00;;;;;;5019700;28;20127;-63
2023/02/06 08:08:39;;;;;;;1.37;0.90;;;22.70;49.60;;;;;;5021786;28;20018;-65
2023/02/06 08:11:11;;;;;;;0.95;0.85;;;22.70;49.50;;;;;;5020071;28;20037;-65
2023/02/06 08:13:37;;;;;;;1.02;0.70;;;22.70;49.70;;;;;;5021025;28;20485;-66
2023/02/06 08:16:07;;;;;;;1.20;0.80;;;22.60;49.80;;;;;;5023638;28;20026;-65
2023/02/06 08:18:33;;;;;;;0.70;0.70;;;22.60;50.00;;;;;;5021229;28;20449;-65
2023/02/06 08:21:13;;;;;;;1.30;0.70;;;22.60;50.10;;;;;;5020545;28;20032;-65
2023/02/06 08:23:39;;;;;;;0.80;0.70;;;22.60;50.10;;;;;;5021776;28;20025;-65
2023/02/06 08:26:08;;;;;;;0.70;0.70;;;22.60;50.30;;;;;;5018485;28;20025;-65
2023/02/06 08:28:36;;;;;;;0.82;0.60;;;22.60;50.50;;;;;;5020475;28;20072;-66
2023/02/06 08:31:28;;;;;;;0.90;0.80;;;22.60;50.60;;;;;;5021104;28;20053;-65
2023/02/06 08:33:54;;;;;;;0.80;0.70;;;22.60;50.80;;;;;;5024647;28;20488;-65
2023/02/06 08:36:21;;;;;;;1.45;0.70;;;22.60;50.90;;;;;;5019302;28;20472;-65
2023/02/06 08:38:47;;;;;;;1.20;0.70;;;22.70;51.00;;;;;;5020147;28;20029;-65
2023/02/06 08:41:23;;;;;;;1.40;0.80;;;22.70;51.20;;;;;;5022640;28;20083;-65
2023/02/06 08:43:50;;;;;;;0.75;0.70;;;22.60;51.20;;;;;;5018173;28;20392;-66
2023/02/06 08:46:18;;;;;;;1.00;0.60;;;22.70;51.40;;;;;;5016858;28;20119;-66
2023/02/06 08:48:44;;;;;;;0.90;0.70;;;22.70;51.50;;;;;;5020567;28;20045;-66
2023/02/06 08:51:11;;;;;;;0.98;0.77;;;22.70;52.50;;;;;;5022339;28;20499;-66
2023/02/06 08:53:37;;;;;;;0.90;0.70;;;22.70;52.40;;;;;;5019929;28;20034;-66
2023/02/06 08:56:06;;;;;;;2.35;0.80;;;22.70;52.40;;;;;;5019428;28;20029;-65
2023/02/06 08:58:32;;;;;;;0.75;0.65;;;22.70;52.40;;;;;;5017568;28;20048;-66
2023/02/06 09:01:03;;;;;;;1.40;0.80;;;22.80;52.90;;;;;;5017029;28;20114;-65
2023/02/06 09:03:29;;;;;;;1.15;0.70;;;22.80;52.90;;;;;;5019048;28;20033;-65
2023/02/06 09:06:02;;;;;;;1.27;0.70;;;22.80;52.90;;;;;;5023886;28;20048;-65
2023/02/06 09:08:29;;;;;;;0.90;0.70;;;22.80;52.80;;;;;;5020184;28;20120;-66
2023/02/06 09:10:54;;;;;;;2.00;0.80;;;22.80;53.20;;;;;;5020116;28;20511;-66
2023/02/06 09:13:20;;;;;;;2.92;0.80;;;22.80;53.40;;;;;;5021742;28;20030;-66
2023/02/06 09:15:52;;;;;;;1.52;0.80;;;22.80;53.80;;;;;;5018083;28;20060;-66
2023/02/06 09:18:18;;;;;;;1.70;1.00;;;22.80;53.90;;;;;;5017893;28;20026;-66
2023/02/06 09:20:44;;;;;;;1.40;0.85;;;22.80;50.50;;;;;;5017449;28;20077;-66
2023/02/06 09:23:10;;;;;;;3.13;0.88;;;22.80;49.50;;;;;;5019761;28;20038;-67
2023/02/06 09:25:38;;;;;;;1.50;1.05;;;22.80;50.10;;;;;;5021665;28;20364;-67
2023/02/06 09:28:04;;;;;;;2.33;1.08;;;22.80;50.00;;;;;;5017003;28;20366;-67
2023/02/06 09:30:30;;;;;;;1.30;0.90;;;22.80;50.00;;;;;;5016686;28;20036;-67
2023/02/06 09:32:55;;;;;;;2.85;1.10;;;22.80;49.80;;;;;;5016550;28;20026;-67
2023/02/06 09:35:21;;;;;;;1.40;1.02;;;22.80;49.70;;;;;;5019096;28;20025;-68
2023/02/06 09:37:46;;;;;;;2.35;1.10;;;22.80;49.60;;;;;;5018659;28;20475;-67
2023/02/06 09:40:16;;;;;;;1.30;1.00;;;22.80;49.40;;;;;;5016711;28;20022;-68
2023/02/06 09:42:42;;;;;;;;;;;22.80;49.20;;;;;;5026627;28;20497;-67
2023/02/06 09:45:14;;;;;;;1.15;0.90;;;22.80;49.10;;;;;;5018448;28;19914;-68
2023/02/06 09:47:44;;;;;;;1.33;1.10;;;22.80;49.10;;;;;;5018384;28;20128;-67
2023/02/06 09:50:15;;;;;;;1.80;1.10;;;22.70;49.10;;;;;;5020056;28;20117;-67
2023/02/06 09:52:53;;;;;;;1.40;1.00;;;22.70;49.00;;;;;;5018289;28;20037;-68
2023/02/06 09:55:37;;;;;;;1.48;1.00;;;22.70;48.80;;;;;;5016454;28;20338;-68
2023/02/06 09:58:25;;;;;;;1.48;0.95;;;22.70;48.80;;;;;;5019950;28;20080;-68
2023/02/06 10:01:14;;;;;;;1.73;1.10;;;22.70;48.80;;;;;;5017756;28;20022;-68
2023/02/06 10:03:45;;;;;;;1.43;1.00;;;22.70;48.80;;;;;;5014576;28;20045;-68
2023/02/06 10:06:36;;;;;;;1.65;1.10;;;22.60;48.80;;;;;;5017419;28;20037;-68
2023/02/06 10:09:24;;;;;;;1.73;1.05;;;22.60;48.90;;;;;;5019324;28;20057;-68
2023/02/06 10:11:55;;;;;;;1.63;1.08;;;22.60;48.90;;;;;;5019151;28;20430;-67
2023/02/06 10:14:31;;;;;;;1.30;0.90;;;22.60;48.90;;;;;;5016399;28;20030;-67
2023/02/06 10:17:01;;;;;;;2.20;1.10;;;22.60;48.70;;;;;;5015958;28;20574;-68
2023/02/06 10:19:47;;;;;;;2.45;0.90;;;22.60;48.90;;;;;;5018410;28;20080;-67
2023/02/06 10:22:38;;;;;;;2.40;1.30;;;22.50;49.00;;;;;;5019736;28;20129;-68
2023/02/06 10:25:17;;;;;;;1.55;1.00;;;22.50;49.00;;;;;;5021495;28;20613;-67
2023/02/06 10:27:46;;;;;;;1.40;0.88;;;22.50;49.10;;;;;;5020657;28;20021;-67
2023/02/06 10:30:16;;;;;;;1.85;1.20;;;22.50;49.20;;;;;;5022927;28;20041;-67
2023/02/06 10:33:11;;;;;;;1.15;1.00;;;22.50;49.20;;;;;;5035611;28;20088;-67
2023/02/06 10:36:10;;;;;;;2.13;1.30;;;22.50;49.10;;;;;;5025881;28;20022;-66
2023/02/06 10:38:59;;;;;;;1.65;1.00;;;22.50;49.10;;;;;;5022575;28;20029;-67
2023/02/06 10:41:54;;;;;;;1.40;1.08;;;22.40;49.00;;;;;;5023259;28;20026;-67
2023/02/06 10:44:50;;;;;;;1.65;0.90;;;22.50;49.00;;;;;;5018683;28;20434;-66
2023/02/06 10:47:23;;;;;;;1.30;1.00;;;22.50;49.30;;;;;;5016979;28;20512;-67
2023/02/06 10:49:57;;;;;;;2.50;1.00;;;22.50;49.10;;;;;;5024526;28;20048;-67
2023/02/06 10:52:27;;;;;;;2.38;1.00;;;22.40;49.30;;;;;;5037320;28;20033;-66
2023/02/06 10:55:00;;;;;;;1.88;1.00;;;22.40;49.70;;;;;;5023558;28;20091;-66
2023/02/06 10:57:29;;;;;;;1.63;1.10;;;22.40;49.30;;;;;;5022473;28;20615;-67
2023/02/06 11:00:03;;;;;;;1.98;1.10;;;22.40;49.00;;;;;;5020422;28;20030;-66
2023/02/06 11:02:54;;;;;;;1.88;1.20;;;22.40;48.80;;;;;;5023371;28;20033;-66
2023/02/06 11:05:31;;;;;;;2.30;1.20;;;22.40;48.60;;;;;;5020327;28;20091;-67
2023/02/06 11:08:17;;;;;;;1.67;1.10;;;22.40;48.60;;;;;;5027439;28;20034;-66
2023/02/06 11:10:45;;;;;;;2.05;1.20;;;22.30;48.50;;;;;;5018146;28;20037;-66
2023/02/06 11:13:24;;;;;;;2.00;1.15;;;22.30;48.50;;;;;;5020437;28;20363;-66
2023/02/06 11:16:21;;;;;;;1.65;1.10;;;22.30;48.50;;;;;;5020800;28;20075;-66
2023/02/06 11:18:48;;;;;;;1.67;0.93;;;22.30;48.60;;;;;;5020017;28;20087;-66
2023/02/06 11:21:35;;;;;;;1.40;0.90;;;22.20;49.00;;;;;;5023216;28;20469;-66
2023/02/06 11:24:11;;;;;;;0.93;0.80;;;22.20;49.40;;;;;;5021661;28;20065;-66
2023/02/06 11:26:46;;;;;;;1.25;0.77;;;22.20;49.60;;;;;;5020816;28;20088;-66
2023/02/06 11:29:20;;;;;;;0.85;0.77;;;22.20;50.30;;;;;;5016938;28;20026;-66
2023/02/06 11:31:50;;;;;;;1.20;0.90;;;22.20;49.90;;;;;;5020050;28;20558;-67
2023/02/06 11:34:24;;;;;;;1.50;1.20;;;22.20;50.20;;;;;;5021381;28;20033;-66
2023/02/06 11:36:53;;;;;;;1.80;1.00;;;22.20;49.60;;;;;;5023159;28;20024;-67
2023/02/06 11:39:36;;;;;;;1.07;0.90;;;22.20;48.90;;;;;;5017865;28;20014;-67
2023/02/06 11:42:14;;;;;;;1.52;0.90;;;22.20;49.00;;;;;;5018526;28;20092;-67
2023/02/06 11:44:41;;;;;;;0.82;0.80;;;22.20;49.30;;;;;;5023811;28;20021;-67
2023/02/06 11:47:25;;;;;;;1.40;1.00;;;22.20;49.60;;;;;;5021393;28;20037;-68
2023/02/06 11:49:51;;;;;;;1.02;0.82;;;22.20;49.70;;;;;;5020489;28;20108;-68
2023/02/06 11:52:30;;;;;;;0.98;0.70;;;22.20;49.70;;;;;;5034056;28;20603;-68
2023/02/06 11:55:01;;;;;;;1.05;0.90;;;22.20;49.80;;;;;;5019053;28;20037;-68
2023/02/06 11:57:29;;;;;;;1.13;0.95;;;22.20;49.80;;;;;;5020105;28;20169;-67
2023/02/06 11:59:57;;;;;;;1.00;0.70;;;22.20;49.70;;;;;;5020113;28;20161;-69
2023/02/06 12:02:31;;;;;;;1.30;0.80;;;22.20;49.80;;;;;;5023064;28;20025;-69
2023/02/06 12:05:14;;;;;;;1.08;0.85;;;22.20;49.80;;;;;;5020245;28;20124;-68
2023/02/06 12:08:25;;;;;;;1.27;0.90;;;22.20;49.90;;;;;;5024226;28;20108;-68
2023/02/06 12:10:58;;;;;;;1.15;0.80;;;22.20;50.00;;;;;;5012842;28;20100;-68
2023/02/06 12:13:29;;;;;;;1.30;0.80;;;22.20;50.20;;;;;;5024283;28;20045;-68
2023/02/06 12:15:59;;;;;;;0.88;0.80;;;22.30;51.10;;;;;;5017711;28;20388;-68
2023/02/06 12:18:33;;;;;;;1.17;0.88;;;22.50;51.20;;;;;;5022455;28;20504;-67
2023/02/06 12:21:19;;;;;;;2.28;0.88;;;22.70;51.00;;;;;;5023564;28;20017;-67
2023/02/06 12:23:54;;;;;;;1.42;0.80;;;23.00;50.40;;;;;;5021799;28;20362;-68
2023/02/06 12:26:22;;;;;;;1.00;0.73;;;23.20;50.40;;;;;;5017968;28;20057;-68
2023/02/06 12:29:00;;;;;;;2.03;0.90;;;23.40;50.60;;;;;;5018869;28;20108;-68
2023/02/06 12:31:40;;;;;;;0.75;0.70;;;23.50;50.50;;;;;;5018399;28;20116;-68
2023/02/06 12:34:20;;;;;;;1.10;0.70;;;23.40;50.60;;;;;;5019750;28;20452;-68
2023/02/06 12:36:58;;;;;;;0.95;0.70;;;23.30;50.70;;;;;;5022911;28;20029;-67
2023/02/06 12:39:27;;;;;;;1.23;0.80;;;23.30;51.00;;;;;;5018768;28;20079;-67
2023/02/06 12:42:14;;;;;;;1.65;0.82;;;23.20;51.00;;;;;;5017890;28;20029;-68
2023/02/06 12:44:46;;;;;;;0.70;0.70;;;23.20;51.20;;;;;;5024538;28;20026;-68
2023/02/06 12:47:40;;;;;;;1.00;0.70;;;23.20;51.20;;;;;;5020778;28;20148;-68
2023/02/06 12:50:13;;;;;;;0.80;0.63;;;23.20;51.10;;;;;;5021430;28;20168;-68
2023/02/06 12:53:02;;;;;;;0.80;0.60;;;23.20;51.20;;;;;;5019880;28;20484;-68
2023/02/06 12:55:48;;;;;;;0.57;0.57;;;23.20;51.20;;;;;;5016220;28;20382;-68
2023/02/06 12:58:35;;;;;;;0.93;0.70;;;23.20;51.20;;;;;;5019569;28;20029;-67
2023/02/06 13:01:06;;;;;;;0.85;0.60;;;23.20;51.20;;;;;;5022134;28;20790;-68
2023/02/06 13:03:40;;;;;;;0.75;0.70;;;23.20;51.20;;;;;;5019396;28;20393;-68
2023/02/06 13:06:28;;;;;;;1.05;0.70;;;23.30;51.30;;;;;;5017450;28;20488;-68